Time;durP1;ratioP1;P1;durP2;ratioP2;P2;SDS_P1;SDS_P2;PMS_P1;PMS_P2;Temp;Humidity;BMP_temperature;BMP_pressure;BME280_temperature;BME280_humidity;BME280_pressure;Samples;Min_cycle;Max_cycle;Signal;HPM_P1;HPM_P2
2022/01/17 00:01:42;;;;;;;6.07;1.10;;;;;;;;;;5019125;28;20022;-70
2022/01/17 00:04:12;;;;;;;6.43;1.48;;;;;;;;;;5019084;28;20022;-71
2022/01/17 00:06:44;;;;;;;7.32;1.05;;;;;;;;;;5018734;28;20026;-71
2022/01/17 00:09:12;;;;;;;11.20;2.15;;;;;;;;;;5001475;28;20188;-70
2022/01/17 00:11:42;;;;;;;9.95;1.17;;;;;;;;;;5018385;28;20025;-71
2022/01/17 00:14:15;;;;;;;7.28;1.42;;;;;;;;;;5018653;28;20021;-70
2022/01/17 00:16:47;;;;;;;10.60;1.77;;;;;;;;;;5018394;28;20044;-71
2022/01/17 00:21:50;;;;;;;12.18;1.65;;;;;;;;;;5018848;28;20014;-71
2022/01/17 00:24:18;;;;;;;8.85;2.25;;;;;;;;;;5018878;28;20029;-71
2022/01/17 00:26:46;;;;;;;8.38;1.15;;;;;;;;;;5018144;28;20029;-70
2022/01/17 00:29:11;;;;;;;4.25;1.08;;;;;;;;;;5033561;28;20041;-71
2022/01/17 00:31:39;;;;;;;10.13;1.73;;;;;;;;;;5001300;28;20021;-71
2022/01/17 00:34:05;;;;;;;4.30;0.98;;;;;;;;;;5017963;28;20018;-71
2022/01/17 00:36:30;;;;;;;5.38;1.02;;;;;;;;;;5018493;28;20022;-72
2022/01/17 00:38:58;;;;;;;7.40;1.67;;;;;;;;;;5001096;28;20014;-71
2022/01/17 00:41:26;;;;;;;8.20;1.55;;;;;;;;;;5001629;28;20026;-71
2022/01/17 00:43:52;;;;;;;8.60;1.85;;;;;;;;;;5017784;28;20030;-71
2022/01/17 00:46:17;;;;;;;7.40;1.13;;;;;;;;;;5018145;28;20042;-72
2022/01/17 00:48:45;;;;;;;5.13;1.02;;;;;;;;;;5018537;28;20040;-71
2022/01/17 00:51:11;;;;;;;6.63;1.50;;;;;;;;;;5018197;28;20014;-71
2022/01/17 00:53:37;;;;;;;9.38;1.63;;;;;;;;;;5017538;28;20041;-71
2022/01/17 00:56:04;;;;;;;4.75;1.10;;;;;;;;;;5017844;28;20053;-71
2022/01/17 00:58:32;;;;;;;5.18;0.80;;;;;;;;;;5033948;28;20054;-71
2022/01/17 01:01:00;;;;;;;7.90;1.27;;;;;;;;;;5017985;28;20011;-71
2022/01/17 01:03:26;;;;;;;5.63;1.00;;;;;;;;;;5033031;28;20048;-71
2022/01/17 01:05:55;;;;;;;8.35;1.55;;;;;;;;;;5017676;28;20022;-70
2022/01/17 01:08:26;;;;;;;4.88;0.98;;;;;;;;;;5017921;28;20018;-73
2022/01/17 01:10:54;;;;;;;9.63;1.20;;;;;;;;;;5018001;28;20021;-71
2022/01/17 01:13:24;;;;;;;9.98;2.42;;;;;;;;;;5017226;28;20018;-72
2022/01/17 01:16:11;;;;;;;14.07;2.05;;;;;;;;;;5017519;28;20045;-71
2022/01/17 01:18:55;;;;;;;8.25;1.70;;;;;;;;;;5000285;28;20014;-71
2022/01/17 01:29:22;;;;;;;4.93;0.63;;;;;;;;;;5016885;28;20025;-73
2022/01/17 01:31:58;;;;;;;9.48;1.00;;;;;;;;;;5010590;28;20018;-74
2022/01/17 01:34:37;;;;;;;7.90;1.10;;;;;;;;;;5017872;28;20034;-73
2022/01/17 01:37:06;;;;;;;5.53;1.08;;;;;;;;;;5018030;28;20050;-73
2022/01/17 01:39:37;;;;;;;11.43;1.15;;;;;;;;;;5018351;28;20014;-73
2022/01/17 01:42:03;;;;;;;10.27;1.42;;;;;;;;;;5016076;28;20090;-74
2022/01/17 01:44:29;;;;;;;5.20;0.90;;;;;;;;;;5017913;28;20015;-73
2022/01/17 01:46:56;;;;;;;7.78;1.13;;;;;;;;;;5016660;28;20079;-71
2022/01/17 01:49:22;;;;;;;7.88;1.15;;;;;;;;;;5017093;28;20038;-74
2022/01/17 01:51:48;;;;;;;6.78;0.90;;;;;;;;;;5016673;28;20054;-73
2022/01/17 01:54:15;;;;;;;4.65;0.82;;;;;;;;;;5016631;28;20078;-73
2022/01/17 01:56:47;;;;;;;7.50;1.05;;;;;;;;;;5017408;28;20022;-74
2022/01/17 01:59:19;;;;;;;9.18;1.70;;;;;;;;;;5016287;28;20006;-73
2022/01/17 02:01:50;;;;;;;4.80;0.93;;;;;;;;;;5016475;28;20030;-73
2022/01/17 02:04:25;;;;;;;5.28;1.35;;;;;;;;;;5017426;28;20123;-73
2022/01/17 02:06:54;;;;;;;8.48;0.95;;;;;;;;;;5017229;28;20069;-72
2022/01/17 02:09:23;;;;;;;5.63;1.25;;;;;;;;;;5000357;28;20352;-72
2022/01/17 02:11:50;;;;;;;5.82;0.70;;;;;;;;;;5017998;28;20014;-74
2022/01/17 02:14:15;;;;;;;2.25;0.40;;;;;;;;;;5016388;28;20022;-75
2022/01/17 02:16:43;;;;;;;1.85;0.30;;;;;;;;;;5017260;28;20025;-76
2022/01/17 02:19:12;;;;;;;1.67;0.40;;;;;;;;;;5000612;28;20022;-76
2022/01/17 02:21:49;;;;;;;1.25;0.30;;;;;;;;;;5000011;28;20074;-76
2022/01/17 02:24:21;;;;;;;4.35;0.50;;;;;;;;;;5023042;28;20020;-76
2022/01/17 02:26:52;;;;;;;1.52;0.40;;;;;;;;;;5016957;28;20006;-77
2022/01/17 02:29:26;;;;;;;0.68;0.20;;;;;;;;;;5004763;28;20016;-76
2022/01/17 02:32:01;;;;;;;2.40;0.20;;;;;;;;;;5023940;28;20026;-76
2022/01/17 02:34:29;;;;;;;2.38;0.57;;;;;;;;;;5003321;28;20029;-74
2022/01/17 02:37:00;;;;;;;1.70;0.30;;;;;;;;;;5004231;28;20006;-75
2022/01/17 02:39:25;;;;;;;0.47;0.17;;;;;;;;;;5020886;28;20010;-74
2022/01/17 02:41:53;;;;;;;2.80;0.30;;;;;;;;;;5020986;28;20069;-75
2022/01/17 02:44:27;;;;;;;1.65;0.20;;;;;;;;;;5020926;28;20015;-75
2022/01/17 02:46:55;;;;;;;2.08;0.30;;;;;;;;;;5021607;28;20014;-75
2022/01/17 02:49:28;;;;;;;1.92;0.38;;;;;;;;;;5020483;28;20029;-75
2022/01/17 02:51:57;;;;;;;2.53;0.30;;;;;;;;;;5020753;28;20022;-75
2022/01/17 02:54:26;;;;;;;1.58;0.30;;;;;;;;;;5020639;28;20011;-74
2022/01/17 02:56:51;;;;;;;1.42;0.40;;;;;;;;;;5021180;28;20011;-74
2022/01/17 02:59:16;;;;;;;1.05;0.38;;;;;;;;;;5022889;28;20034;-74
2022/01/17 03:01:44;;;;;;;1.25;0.40;;;;;;;;;;5026099;28;20014;-73
2022/01/17 03:04:10;;;;;;;4.35;0.50;;;;;;;;;;5020447;28;20026;-73
2022/01/17 03:06:38;;;;;;;1.50;0.40;;;;;;;;;;5020822;28;20095;-74
2022/01/17 03:09:03;;;;;;;4.85;0.73;;;;;;;;;;5020196;28;20029;-74
2022/01/17 03:11:32;;;;;;;3.05;0.38;;;;;;;;;;5020285;28;20062;-74
2022/01/17 03:13:59;;;;;;;1.58;0.35;;;;;;;;;;5003015;28;20011;-74
2022/01/17 03:16:34;;;;;;;1.67;0.30;;;;;;;;;;5019875;28;20010;-74
2022/01/17 03:19:00;;;;;;;2.45;0.45;;;;;;;;;;5019358;28;20011;-74
2022/01/17 03:21:34;;;;;;;5.35;0.70;;;;;;;;;;5020006;28;20022;-73
2022/01/17 03:23:59;;;;;;;6.10;1.35;;;;;;;;;;5020304;28;20240;-74
2022/01/17 03:26:29;;;;;;;5.30;0.75;;;;;;;;;;5003787;28;20007;-73
2022/01/17 03:28:58;;;;;;;4.13;0.60;;;;;;;;;;5019737;28;20018;-74
2022/01/17 03:31:29;;;;;;;1.48;0.50;;;;;;;;;;5020118;28;20022;-72
2022/01/17 03:33:57;;;;;;;1.67;0.50;;;;;;;;;;5003213;28;20119;-74
2022/01/17 03:36:23;;;;;;;2.00;0.70;;;;;;;;;;5002334;28;20010;-72
2022/01/17 03:38:50;;;;;;;5.88;1.13;;;;;;;;;;5019708;28;20038;-72
2022/01/17 03:41:18;;;;;;;7.28;0.75;;;;;;;;;;5016928;28;20037;-73
2022/01/17 03:43:43;;;;;;;4.28;0.75;;;;;;;;;;5019393;28;20026;-72
2022/01/17 03:46:11;;;;;;;0.50;0.35;;;;;;;;;;5019094;28;20021;-72
2022/01/17 03:48:37;;;;;;;4.07;0.88;;;;;;;;;;5019551;28;20018;-72
2022/01/17 03:51:02;;;;;;;3.50;0.70;;;;;;;;;;5034736;28;20010;-72
2022/01/17 03:53:29;;;;;;;1.83;0.65;;;;;;;;;;5002653;28;20036;-73
2022/01/17 03:55:55;;;;;;;5.43;1.08;;;;;;;;;;5019599;28;20026;-72
2022/01/17 03:58:21;;;;;;;2.42;0.52;;;;;;;;;;5002214;28;20015;-72
2022/01/17 04:00:47;;;;;;;5.93;1.15;;;;;;;;;;5019180;28;20018;-72
2022/01/17 04:03:13;;;;;;;3.13;0.57;;;;;;;;;;5019194;28;20016;-73
2022/01/17 04:05:41;;;;;;;3.13;0.82;;;;;;;;;;5019369;28;20015;-73
2022/01/17 04:08:07;;;;;;;3.03;0.77;;;;;;;;;;5001805;28;20093;-73
2022/01/17 04:10:33;;;;;;;4.30;1.00;;;;;;;;;;5019145;28;20078;-72
2022/01/17 04:13:04;;;;;;;3.65;0.82;;;;;;;;;;5002417;28;20021;-72
2022/01/17 04:15:35;;;;;;;3.67;1.00;;;;;;;;;;5001472;28;20010;-73
2022/01/17 04:18:01;;;;;;;1.80;0.85;;;;;;;;;;5018834;28;20010;-71
2022/01/17 04:20:28;;;;;;;3.00;0.80;;;;;;;;;;5002276;28;20028;-71
2022/01/17 04:23:08;;;;;;;5.65;0.80;;;;;;;;;;5002222;28;20041;-72
2022/01/17 04:25:36;;;;;;;2.33;0.60;;;;;;;;;;5018899;28;20010;-72
2022/01/17 04:28:05;;;;;;;3.80;0.60;;;;;;;;;;5018898;28;20018;-72
2022/01/17 04:30:31;;;;;;;2.42;0.60;;;;;;;;;;5019323;28;20022;-71
2022/01/17 04:32:57;;;;;;;1.98;0.70;;;;;;;;;;5018637;28;20025;-71
2022/01/17 04:35:27;;;;;;;3.67;0.60;;;;;;;;;;5017957;28;20057;-71
2022/01/17 04:38:03;;;;;;;2.45;0.55;;;;;;;;;;5017628;28;20026;-71
2022/01/17 04:40:35;;;;;;;7.07;0.68;;;;;;;;;;5017854;28;20226;-72
2022/01/17 04:43:04;;;;;;;2.17;0.50;;;;;;;;;;5017542;28;20065;-72
2022/01/17 04:45:33;;;;;;;1.88;0.70;;;;;;;;;;5017800;28;20007;-71
2022/01/17 04:47:59;;;;;;;2.72;0.80;;;;;;;;;;5015400;28;20025;-72
2022/01/17 04:50:30;;;;;;;2.42;0.68;;;;;;;;;;5001708;28;20102;-71
2022/01/17 04:52:59;;;;;;;1.83;0.50;;;;;;;;;;5000544;28;20052;-71
2022/01/17 04:55:26;;;;;;;3.30;0.77;;;;;;;;;;5022803;28;20014;-72
2022/01/17 04:57:52;;;;;;;4.00;0.70;;;;;;;;;;5024871;28;20041;-72
2022/01/17 05:00:20;;;;;;;2.40;0.50;;;;;;;;;;5017435;28;20029;-71
2022/01/17 05:02:48;;;;;;;2.92;0.80;;;;;;;;;;5018258;28;20045;-73
2022/01/17 05:05:19;;;;;;;4.38;0.82;;;;;;;;;;5021574;28;20154;-70
2022/01/17 05:07:50;;;;;;;3.97;0.68;;;;;;;;;;5017945;28;20010;-71
2022/01/17 05:10:21;;;;;;;2.95;0.50;;;;;;;;;;5018121;28;20011;-70
2022/01/17 05:12:49;;;;;;;3.35;0.40;;;;;;;;;;5000892;28;20033;-71
2022/01/17 05:15:27;;;;;;;2.35;0.70;;;;;;;;;;5017491;28;20046;-71
2022/01/17 05:17:59;;;;;;;2.30;0.60;;;;;;;;;;5001260;28;20086;-71
2022/01/17 05:20:28;;;;;;;10.10;0.80;;;;;;;;;;5016526;28;20081;-71
2022/01/17 05:22:54;;;;;;;1.25;0.70;;;;;;;;;;5018820;28;20022;-72
2022/01/17 05:25:22;;;;;;;2.53;0.50;;;;;;;;;;5025469;28;20029;-71
2022/01/17 05:27:50;;;;;;;2.72;0.80;;;;;;;;;;5016498;28;20029;-71
2022/01/17 05:30:18;;;;;;;3.28;0.85;;;;;;;;;;5017485;28;20022;-72
2022/01/17 05:32:43;;;;;;;3.47;0.60;;;;;;;;;;5018571;28;20013;-72
2022/01/17 05:35:10;;;;;;;3.75;0.50;;;;;;;;;;5016896;28;20022;-71
2022/01/17 05:37:43;;;;;;;1.55;0.50;;;;;;;;;;5017812;28;20010;-71
2022/01/17 05:40:10;;;;;;;2.38;0.77;;;;;;;;;;5017677;28;20010;-70
2022/01/17 05:42:36;;;;;;;3.25;0.50;;;;;;;;;;5016015;28;20045;-70
2022/01/17 05:45:03;;;;;;;1.70;0.43;;;;;;;;;;5017955;28;20042;-71
2022/01/17 05:47:31;;;;;;;1.67;0.50;;;;;;;;;;5017141;28;20011;-71
2022/01/17 05:50:02;;;;;;;2.65;0.88;;;;;;;;;;5022476;28;20019;-70
2022/01/17 05:52:28;;;;;;;3.20;0.63;;;;;;;;;;4999622;28;20010;-71
2022/01/17 05:54:56;;;;;;;2.55;0.55;;;;;;;;;;5016903;28;20022;-71
2022/01/17 05:57:22;;;;;;;2.45;0.82;;;;;;;;;;5014965;28;20116;-71
2022/01/17 05:59:47;;;;;;;5.00;1.48;;;;;;;;;;5017097;28;20014;-72
2022/01/17 06:02:16;;;;;;;2.28;0.50;;;;;;;;;;5017223;28;20027;-69
2022/01/17 06:04:41;;;;;;;2.70;0.60;;;;;;;;;;5018899;28;20260;-71
2022/01/17 06:07:07;;;;;;;9.73;0.60;;;;;;;;;;5021011;28;20010;-70
2022/01/17 06:09:35;;;;;;;2.03;0.77;;;;;;;;;;5002551;28;20213;-70
2022/01/17 06:12:07;;;;;;;2.28;0.80;;;;;;;;;;5020423;28;20029;-71
2022/01/17 06:14:35;;;;;;;2.88;0.63;;;;;;;;;;5021022;28;20070;-71
2022/01/17 06:17:00;;;;;;;1.42;0.70;;;;;;;;;;5003897;28;20017;-70
2022/01/17 06:19:26;;;;;;;2.70;0.57;;;;;;;;;;5020818;28;20077;-71
2022/01/17 06:21:51;;;;;;;12.13;1.52;;;;;;;;;;5020327;28;20007;-71
2022/01/17 06:24:24;;;;;;;3.08;0.47;;;;;;;;;;5020680;28;20021;-71
2022/01/17 06:26:51;;;;;;;5.50;0.85;;;;;;;;;;5020836;28;20037;-70
2022/01/17 06:29:17;;;;;;;2.63;0.63;;;;;;;;;;5003060;28;20045;-70
2022/01/17 06:31:44;;;;;;;5.78;1.00;;;;;;;;;;5037513;28;20010;-70
2022/01/17 06:34:11;;;;;;;3.17;0.57;;;;;;;;;;5021403;28;20020;-70
2022/01/17 06:36:37;;;;;;;2.97;0.82;;;;;;;;;;5020379;28;20095;-71
2022/01/17 06:39:03;;;;;;;3.42;0.65;;;;;;;;;;5021111;28;20022;-69
2022/01/17 06:41:29;;;;;;;3.72;1.02;;;;;;;;;;5020150;28;20054;-70
2022/01/17 06:43:55;;;;;;;4.57;0.98;;;;;;;;;;5004113;28;20025;-69
2022/01/17 06:46:21;;;;;;;4.35;1.02;;;;;;;;;;5019784;28;20018;-70
2022/01/17 06:48:49;;;;;;;5.47;0.73;;;;;;;;;;5020950;28;20014;-70
2022/01/17 06:51:17;;;;;;;4.50;0.80;;;;;;;;;;5023227;28;20002;-69
2022/01/17 06:53:48;;;;;;;5.15;0.90;;;;;;;;;;5023557;28;20066;-69
2022/01/17 06:56:14;;;;;;;1.85;0.50;;;;;;;;;;5036726;28;20048;-70
2022/01/17 06:58:40;;;;;;;3.35;0.70;;;;;;;;;;5036493;28;20086;-71
2022/01/17 07:01:14;;;;;;;3.97;0.82;;;;;;;;;;5020475;28;20022;-69
2022/01/17 07:03:43;;;;;;;4.05;1.13;;;;;;;;;;5019886;28;20018;-70
2022/01/17 07:06:09;;;;;;;4.40;0.60;;;;;;;;;;5020073;28;20275;-71
2022/01/17 07:08:34;;;;;;;6.38;1.05;;;;;;;;;;5019498;28;20018;-71
2022/01/17 07:11:00;;;;;;;4.80;0.77;;;;;;;;;;5019519;28;20077;-70
2022/01/17 07:13:25;;;;;;;2.28;0.60;;;;;;;;;;5019953;28;20030;-69
2022/01/17 07:15:53;;;;;;;3.47;0.73;;;;;;;;;;5019283;28;20025;-70
2022/01/17 07:18:19;;;;;;;2.80;0.77;;;;;;;;;;5020038;28;20035;-70
2022/01/17 07:20:44;;;;;;;3.85;0.70;;;;;;;;;;5019035;28;20014;-70
2022/01/17 07:23:15;;;;;;;3.92;0.80;;;;;;;;;;5019663;28;20019;-70
2022/01/17 07:25:40;;;;;;;4.15;0.80;;;;;;;;;;5019872;28;20082;-70
2022/01/17 07:28:12;;;;;;;5.90;0.93;;;;;;;;;;5035667;28;20034;-70
2022/01/17 07:30:37;;;;;;;3.78;0.70;;;;;;;;;;5019824;28;20021;-70
2022/01/17 07:33:04;;;;;;;4.97;1.30;;;;;;;;;;5020196;28;20014;-70
2022/01/17 07:35:30;;;;;;;4.88;1.17;;;;;;;;;;5019754;28;20026;-70
2022/01/17 07:37:56;;;;;;;6.07;0.88;;;;;;;;;;5035862;28;20030;-70
2022/01/17 07:40:24;;;;;;;2.30;0.50;;;;;;;;;;5035856;28;20089;-70
2022/01/17 07:42:54;;;;;;;1.90;0.40;;;;;;;;;;5019258;28;20034;-72
2022/01/17 07:45:21;;;;;;;3.25;0.70;;;;;;;;;;5035190;28;20010;-70
2022/01/17 07:50:23;;;;;;;2.25;0.80;;;;;;;;;;5019387;28;20073;-70
2022/01/17 07:52:54;;;;;;;3.97;1.00;;;;;;;;;;5034970;28;20030;-72
2022/01/17 07:55:21;;;;;;;3.22;0.50;;;;;;;;;;5020006;28;20018;-70
2022/01/17 07:57:49;;;;;;;2.65;0.95;;;;;;;;;;5035645;28;20022;-70
2022/01/17 08:00:20;;;;;;;4.28;0.93;;;;;;;;;;5019935;28;20018;-70
2022/01/17 08:02:47;;;;;;;5.28;0.60;;;;;;;;;;5019856;28;20211;-70
2022/01/17 08:05:15;;;;;;;5.80;1.17;;;;;;;;;;5019797;28;20014;-69
2022/01/17 08:07:41;;;;;;;4.97;0.55;;;;;;;;;;5019728;28;20014;-70
2022/01/17 08:10:12;;;;;;;5.45;0.90;;;;;;;;;;5035735;28;20025;-70
2022/01/17 08:12:38;;;;;;;5.30;0.63;;;;;;;;;;5019661;28;20006;-70
2022/01/17 08:15:05;;;;;;;7.95;0.82;;;;;;;;;;5035295;28;20034;-70
2022/01/17 08:17:31;;;;;;;3.25;0.70;;;;;;;;;;5019589;28;20018;-70
2022/01/17 08:19:56;;;;;;;5.90;0.70;;;;;;;;;;5019684;28;20014;-70
2022/01/17 08:22:21;;;;;;;4.15;0.73;;;;;;;;;;5035395;28;20010;-70
2022/01/17 08:24:49;;;;;;;1.42;0.40;;;;;;;;;;5019278;28;20033;-70
2022/01/17 08:27:14;;;;;;;3.47;0.60;;;;;;;;;;5019354;28;20010;-70
2022/01/17 08:29:40;;;;;;;3.63;0.85;;;;;;;;;;5019273;28;20016;-70
2022/01/17 08:32:07;;;;;;;6.30;1.00;;;;;;;;;;5019537;28;20018;-71
2022/01/17 08:34:35;;;;;;;4.97;1.08;;;;;;;;;;5035030;28;20013;-71
2022/01/17 08:37:02;;;;;;;4.35;0.80;;;;;;;;;;5019240;28;20024;-71
2022/01/17 08:39:27;;;;;;;5.25;1.13;;;;;;;;;;5019225;28;20041;-70
2022/01/17 08:41:54;;;;;;;2.78;0.60;;;;;;;;;;5019061;28;20026;-70
2022/01/17 08:44:23;;;;;;;4.07;0.85;;;;;;;;;;5019444;28;20030;-70
2022/01/17 08:46:48;;;;;;;4.50;0.70;;;;;;;;;;5019011;28;20014;-71
2022/01/17 08:49:16;;;;;;;1.30;0.52;;;;;;;;;;5034635;28;20029;-71
2022/01/17 08:51:43;;;;;;;6.22;0.65;;;;;;;;;;5019291;28;20014;-71
2022/01/17 08:54:08;;;;;;;4.80;1.00;;;;;;;;;;5018908;28;20030;-71
2022/01/17 08:56:36;;;;;;;6.32;1.00;;;;;;;;;;5018998;28;20024;-70
2022/01/17 08:59:02;;;;;;;1.77;0.40;;;;;;;;;;5018774;28;20025;-71
2022/01/17 09:01:28;;;;;;;3.72;0.90;;;;;;;;;;5018764;28;20041;-71
2022/01/17 09:03:54;;;;;;;2.70;0.68;;;;;;;;;;5018754;28;20014;-71
2022/01/17 09:06:20;;;;;;;5.90;0.88;;;;;;;;;;5018710;28;20043;-69
2022/01/17 09:08:46;;;;;;;3.55;0.90;;;;;;;;;;5018761;28;20022;-71
2022/01/17 09:11:11;;;;;;;6.00;0.95;;;;;;;;;;5018773;28;20205;-69
2022/01/17 09:13:37;;;;;;;3.25;1.02;;;;;;;;;;5018557;28;20030;-70
2022/01/17 09:16:05;;;;;;;5.13;0.70;;;;;;;;;;5018552;28;20040;-71
2022/01/17 09:18:30;;;;;;;2.05;0.60;;;;;;;;;;5018665;28;20137;-70
2022/01/17 09:21:00;;;;;;;1.92;0.40;;;;;;;;;;5034215;28;20030;-70
2022/01/17 09:23:26;;;;;;;3.75;0.80;;;;;;;;;;5018309;28;20023;-70
2022/01/17 09:25:52;;;;;;;5.70;1.00;;;;;;;;;;5034173;28;20053;-70
2022/01/17 09:28:18;;;;;;;1.95;0.70;;;;;;;;;;5033865;28;20022;-70
2022/01/17 09:30:43;;;;;;;2.15;0.82;;;;;;;;;;5034042;28;20042;-70
2022/01/17 09:33:11;;;;;;;3.88;0.90;;;;;;;;;;5018240;28;20023;-70
2022/01/17 09:35:37;;;;;;;3.33;0.73;;;;;;;;;;5018128;28;20122;-71
2022/01/17 09:38:05;;;;;;;4.05;0.63;;;;;;;;;;5033698;28;20030;-71
2022/01/17 09:40:33;;;;;;;2.90;0.90;;;;;;;;;;5018007;28;20014;-70
2022/01/17 09:42:59;;;;;;;3.17;0.75;;;;;;;;;;5017912;28;20097;-70
2022/01/17 09:45:25;;;;;;;2.90;0.45;;;;;;;;;;5018154;28;20029;-71
2022/01/17 09:47:50;;;;;;;4.65;0.63;;;;;;;;;;5017987;28;20017;-70
2022/01/17 09:50:22;;;;;;;3.17;0.50;;;;;;;;;;5033647;28;20028;-71
2022/01/17 09:52:52;;;;;;;3.63;0.73;;;;;;;;;;5018166;28;20014;-70
2022/01/17 09:55:23;;;;;;;3.03;0.60;;;;;;;;;;5018125;28;20019;-70
2022/01/17 09:58:00;;;;;;;7.68;0.82;;;;;;;;;;5033741;28;20056;-70
2022/01/17 10:00:28;;;;;;;3.42;0.80;;;;;;;;;;5033762;28;20018;-70
2022/01/17 10:02:57;;;;;;;2.83;0.68;;;;;;;;;;5017986;28;20037;-72
2022/01/17 10:05:24;;;;;;;1.30;0.43;;;;;;;;;;5017823;28;20080;-70
2022/01/17 10:08:07;;;;;;;4.55;0.82;;;;;;;;;;5033629;28;20014;-70
2022/01/17 10:11:04;;;;;;;4.00;0.65;;;;;;;;;;5033603;28;20021;-72
2022/01/17 10:13:38;;;;;;;3.65;0.80;;;;;;;;;;5017866;28;20010;-71
2022/01/17 10:16:15;;;;;;;3.10;0.90;;;;;;;;;;5017837;28;20260;-71
2022/01/17 10:18:49;;;;;;;6.82;0.70;;;;;;;;;;5017947;28;20006;-70
2022/01/17 10:21:43;;;;;;;6.00;0.70;;;;;;;;;;5017794;28;20022;-70
2022/01/17 10:35:15;;;;;;;4.72;0.55;;;;;;;;;;5017775;28;20064;-71
2022/01/17 10:37:54;;;;;;;3.58;0.90;;;;;;;;;;5017761;28;20010;-71
2022/01/17 10:40:22;;;;;;;3.53;0.60;;;;;;;;;;5000799;28;20038;-71
2022/01/17 10:42:50;;;;;;;4.65;0.82;;;;;;;;;;5017674;28;20030;-70
2022/01/17 10:45:24;;;;;;;6.35;0.70;;;;;;;;;;5018093;28;20019;-70
2022/01/17 10:48:00;;;;;;;3.00;0.52;;;;;;;;;;5017406;28;20015;-71
2022/01/17 10:50:35;;;;;;;4.53;0.73;;;;;;;;;;5033326;28;20020;-72
2022/01/17 10:53:03;;;;;;;2.08;0.50;;;;;;;;;;5021209;28;20014;-70
2022/01/17 10:55:36;;;;;;;3.15;0.73;;;;;;;;;;5021233;28;20046;-71
2022/01/17 10:58:09;;;;;;;5.30;0.95;;;;;;;;;;5021111;28;20006;-71
2022/01/17 11:00:38;;;;;;;3.42;0.60;;;;;;;;;;5036818;28;20022;-71
2022/01/17 11:03:07;;;;;;;4.25;0.60;;;;;;;;;;5020989;28;20025;-70
2022/01/17 11:05:34;;;;;;;2.60;0.63;;;;;;;;;;5020737;28;20015;-72
2022/01/17 11:08:02;;;;;;;4.05;0.90;;;;;;;;;;5020892;28;20018;-70
2022/01/17 11:10:31;;;;;;;4.05;0.88;;;;;;;;;;5036619;28;20053;-71
2022/01/17 11:13:02;;;;;;;9.32;1.38;;;;;;;;;;5020824;28;20029;-70
2022/01/17 11:15:31;;;;;;;10.80;1.30;;;;;;;;;;5003829;28;20094;-71
2022/01/17 11:17:59;;;;;;;1.55;0.63;;;;;;;;;;5036423;28;20018;-71
2022/01/17 11:20:27;;;;;;;1.63;0.47;;;;;;;;;;5036497;28;20045;-71
2022/01/17 11:22:58;;;;;;;3.40;0.70;;;;;;;;;;5036403;28;20037;-70
2022/01/17 11:25:31;;;;;;;5.05;1.48;;;;;;;;;;5020589;28;20014;-70
2022/01/17 11:28:00;;;;;;;5.22;0.70;;;;;;;;;;5020459;28;20025;-71
2022/01/17 11:30:27;;;;;;;7.32;0.65;;;;;;;;;;5036416;28;20041;-71
2022/01/17 11:32:55;;;;;;;3.88;0.57;;;;;;;;;;5020237;28;20049;-71
2022/01/17 11:35:24;;;;;;;3.00;0.60;;;;;;;;;;5036360;28;20022;-71
2022/01/17 11:37:55;;;;;;;1.55;0.73;;;;;;;;;;5020237;28;20041;-70
2022/01/17 11:40:26;;;;;;;1.38;0.40;;;;;;;;;;5020404;28;20034;-72
2022/01/17 11:42:52;;;;;;;2.08;0.40;;;;;;;;;;5020138;28;20038;-71
2022/01/17 11:45:24;;;;;;;4.78;0.60;;;;;;;;;;5036031;28;20041;-71
2022/01/17 11:47:53;;;;;;;1.33;0.50;;;;;;;;;;5020209;28;20030;-71
2022/01/17 11:50:28;;;;;;;2.10;0.43;;;;;;;;;;5035861;28;20019;-71
2022/01/17 11:52:58;;;;;;;2.30;0.60;;;;;;;;;;5020019;28;20072;-71
2022/01/17 11:55:42;;;;;;;1.92;0.50;;;;;;;;;;5020116;28;20032;-71
2022/01/17 11:58:37;;;;;;;1.73;0.47;;;;;;;;;;5035591;28;20018;-71
2022/01/17 12:01:03;;;;;;;4.18;0.50;;;;;;;;;;5020130;28;20018;-70
2022/01/17 12:03:40;;;;;;;4.78;1.02;;;;;;;;;;5019456;28;20013;-71
2022/01/17 12:06:32;;;;;;;3.58;0.73;;;;;;;;;;5019835;28;20049;-71
2022/01/17 12:09:21;;;;;;;3.47;0.82;;;;;;;;;;5035490;28;20034;-71
2022/01/17 12:11:48;;;;;;;3.63;0.65;;;;;;;;;;5035452;28;20026;-71
2022/01/17 12:14:32;;;;;;;2.95;0.82;;;;;;;;;;5019691;28;20070;-71
2022/01/17 12:17:19;;;;;;;7.10;0.63;;;;;;;;;;5019850;28;20015;-70
2022/01/17 12:20:03;;;;;;;2.95;0.70;;;;;;;;;;5019948;28;20021;-71
2022/01/17 12:22:49;;;;;;;4.15;0.63;;;;;;;;;;5019686;28;20021;-71
2022/01/17 12:25:23;;;;;;;3.38;0.70;;;;;;;;;;5019538;28;20014;-70
2022/01/17 12:28:12;;;;;;;3.10;0.68;;;;;;;;;;5019541;28;20034;-71
2022/01/17 12:30:50;;;;;;;1.95;0.50;;;;;;;;;;5025930;28;20033;-72
2022/01/17 12:33:32;;;;;;;1.90;0.50;;;;;;;;;;5035253;28;20046;-71
2022/01/17 12:36:06;;;;;;;1.83;0.45;;;;;;;;;;5019091;28;20007;-71
2022/01/17 12:38:39;;;;;;;5.45;0.80;;;;;;;;;;5018935;28;20069;-73
2022/01/17 12:41:05;;;;;;;2.78;0.88;;;;;;;;;;5018557;28;20024;-71
2022/01/17 12:43:33;;;;;;;3.45;0.70;;;;;;;;;;5034545;28;20010;-71
2022/01/17 12:46:10;;;;;;;4.35;0.50;;;;;;;;;;5018797;28;20046;-71
2022/01/17 12:48:37;;;;;;;3.95;0.68;;;;;;;;;;5018751;28;20018;-72
2022/01/17 12:51:07;;;;;;;2.42;0.60;;;;;;;;;;5018818;28;20032;-71
2022/01/17 12:53:33;;;;;;;3.47;0.40;;;;;;;;;;5018813;28;20011;-70
2022/01/17 12:56:05;;;;;;;2.83;0.63;;;;;;;;;;5018625;28;20022;-70
2022/01/17 12:58:33;;;;;;;1.05;0.32;;;;;;;;;;5018671;28;20018;-70
2022/01/17 13:01:01;;;;;;;3.97;0.60;;;;;;;;;;5034516;28;20025;-70
2022/01/17 13:03:36;;;;;;;3.55;0.75;;;;;;;;;;5034291;28;20237;-71
2022/01/17 13:06:05;;;;;;;1.20;0.50;;;;;;;;;;5034241;28;20018;-71
2022/01/17 13:08:31;;;;;;;3.40;0.47;;;;;;;;;;5018436;28;20022;-71
2022/01/17 13:10:59;;;;;;;2.45;0.93;;;;;;;;;;5018518;28;20073;-71
2022/01/17 13:13:24;;;;;;;3.05;0.57;;;;;;;;;;5017746;28;20025;-70
2022/01/17 13:16:07;;;;;;;3.05;0.50;;;;;;;;;;5018271;28;20026;-70
2022/01/17 13:18:34;;;;;;;3.47;0.98;;;;;;;;;;5018230;28;20014;-71
2022/01/17 13:21:01;;;;;;;4.25;0.75;;;;;;;;;;5033965;28;20014;-70
2022/01/17 13:23:44;;;;;;;5.82;0.93;;;;;;;;;;5018499;28;20018;-70
2022/01/17 13:26:14;;;;;;;2.67;0.70;;;;;;;;;;5018256;28;20045;-70
2022/01/17 13:28:46;;;;;;;1.80;0.43;;;;;;;;;;5018201;28;20026;-71
2022/01/17 13:31:16;;;;;;;2.65;0.68;;;;;;;;;;5034000;28;20018;-71
2022/01/17 13:33:42;;;;;;;3.88;0.85;;;;;;;;;;5018299;28;20014;-71
2022/01/17 13:36:07;;;;;;;3.00;0.60;;;;;;;;;;5018094;28;20081;-71
2022/01/17 13:38:35;;;;;;;2.83;0.60;;;;;;;;;;5017950;28;20038;-71
2022/01/17 13:41:01;;;;;;;2.92;0.50;;;;;;;;;;5017839;28;20106;-70
2022/01/17 13:43:27;;;;;;;1.02;0.40;;;;;;;;;;5018137;28;20010;-71
2022/01/17 13:45:58;;;;;;;4.93;0.77;;;;;;;;;;5018214;28;20033;-71
2022/01/17 13:48:27;;;;;;;2.08;0.50;;;;;;;;;;5018157;28;20102;-71
2022/01/17 13:51:00;;;;;;;2.50;0.40;;;;;;;;;;5018082;28;20102;-73
2022/01/17 13:53:33;;;;;;;2.60;0.43;;;;;;;;;;5018251;28;20034;-71
2022/01/17 13:56:07;;;;;;;1.20;0.43;;;;;;;;;;5034300;28;20085;-71
2022/01/17 13:58:38;;;;;;;0.40;0.40;;;;;;;;;;5017954;28;20010;-70
2022/01/17 14:01:09;;;;;;;2.38;0.60;;;;;;;;;;5018286;28;20018;-70
2022/01/17 14:03:35;;;;;;;2.67;0.95;;;;;;;;;;5018059;28;20201;-70
2022/01/17 14:06:11;;;;;;;1.10;0.55;;;;;;;;;;5018068;28;20018;-70
2022/01/17 14:08:50;;;;;;;2.20;0.85;;;;;;;;;;5017818;28;20046;-70
2022/01/17 14:11:23;;;;;;;2.72;1.17;;;;;;;;;;5034006;28;20122;-71
2022/01/17 14:13:52;;;;;;;4.50;0.50;;;;;;;;;;5018044;28;20017;-70
2022/01/17 14:16:17;;;;;;;2.58;0.60;;;;;;;;;;5017915;28;20026;-73
2022/01/17 14:18:45;;;;;;;1.20;0.45;;;;;;;;;;5017818;28;20026;-71
2022/01/17 14:21:31;;;;;;;2.45;0.47;;;;;;;;;;5000988;28;20025;-70
2022/01/17 14:24:17;;;;;;;3.60;0.50;;;;;;;;;;5017847;28;20033;-72
2022/01/17 14:26:59;;;;;;;2.45;0.57;;;;;;;;;;5021747;28;20010;-71
2022/01/17 14:29:27;;;;;;;1.52;0.52;;;;;;;;;;5021642;28;20066;-70
2022/01/17 14:31:54;;;;;;;1.70;0.63;;;;;;;;;;5021653;28;20015;-71
2022/01/17 14:34:24;;;;;;;3.83;0.70;;;;;;;;;;5021577;28;20022;-71
2022/01/17 14:37:07;;;;;;;5.13;0.93;;;;;;;;;;5021458;28;20014;-71
2022/01/17 14:39:32;;;;;;;2.55;0.50;;;;;;;;;;5021061;28;20010;-71
2022/01/17 14:42:05;;;;;;;6.65;0.80;;;;;;;;;;5018561;28;20042;-71
2022/01/17 14:44:33;;;;;;;1.13;0.50;;;;;;;;;;5020868;28;20038;-70
2022/01/17 14:47:00;;;;;;;2.40;0.50;;;;;;;;;;5021642;28;20023;-70
2022/01/17 14:49:30;;;;;;;0.38;0.32;;;;;;;;;;5021461;28;20022;-71
2022/01/17 14:52:00;;;;;;;1.67;0.60;;;;;;;;;;5036865;28;20014;-70
2022/01/17 14:54:33;;;;;;;4.40;1.50;;;;;;;;;;5021157;28;20038;-71
2022/01/17 15:04:41;;;;;;;1.52;0.55;;;;;;;;;;5020984;28;20022;-70
2022/01/17 15:07:11;;;;;;;1.48;0.35;;;;;;;;;;5037000;28;20018;-71
2022/01/17 15:09:37;;;;;;;1.67;0.80;;;;;;;;;;5036499;28;20036;-71
2022/01/17 15:12:03;;;;;;;5.18;0.65;;;;;;;;;;5020782;28;20018;-70
2022/01/17 15:14:29;;;;;;;1.00;0.75;;;;;;;;;;5020981;28;20038;-70
2022/01/17 15:16:55;;;;;;;3.13;0.40;;;;;;;;;;5020596;28;20021;-71
2022/01/17 15:19:20;;;;;;;2.92;0.55;;;;;;;;;;5020635;28;20029;-71
2022/01/17 15:21:45;;;;;;;3.47;0.57;;;;;;;;;;5020529;28;20042;-70
2022/01/17 15:24:11;;;;;;;3.80;0.60;;;;;;;;;;5020593;28;20022;-69
2022/01/17 15:26:38;;;;;;;1.80;0.47;;;;;;;;;;5036227;28;20029;-70
2022/01/17 15:29:06;;;;;;;1.50;0.50;;;;;;;;;;5020429;28;20023;-70